sensor_id;sensor_type;location;lat;lon;timestamp;temperature;humidity
36552;DHT22;22559;54.176;12.102;2022-10-31T00:00:19;12.10;99.90
36552;DHT22;22559;54.176;12.102;2022-10-31T00:02:45;12.00;99.90
36552;DHT22;22559;54.176;12.102;2022-10-31T00:05:11;11.90;99.90
36552;DHT22;22559;54.176;12.102;2022-10-31T00:07:36;11.80;99.90
36552;DHT22;22559;54.176;12.102;2022-10-31T00:10:02;11.70;99.90
36552;DHT22;22559;54.176;12.102;2022-10-31T00:12:28;11.60;99.90
36552;DHT22;22559;54.176;12.102;2022-10-31T00:14:53;11.60;99.90
36552;DHT22;22559;54.176;12.102;2022-10-31T00:17:19;11.50;99.90
36552;DHT22;22559;54.176;12.102;2022-10-31T00:19:44;11.50;99.90
36552;DHT22;22559;54.176;12.102;2022-10-31T00:22:10;11.40;99.90
36552;DHT22;22559;54.176;12.102;2022-10-31T00:24:36;11.40;99.90
36552;DHT22;22559;54.176;12.102;2022-10-31T00:27:01;11.40;99.90
36552;DHT22;22559;54.176;12.102;2022-10-31T00:29:27;11.50;99.90
36552;DHT22;22559;54.176;12.102;2022-10-31T00:31:52;11.80;99.90
36552;DHT22;22559;54.176;12.102;2022-10-31T00:34:18;12.00;99.90
36552;DHT22;22559;54.176;12.102;2022-10-31T00:36:44;12.20;99.90
36552;DHT22;22559;54.176;12.102;2022-10-31T00:39:09;12.20;99.90
36552;DHT22;22559;54.176;12.102;2022-10-31T00:41:35;12.00;99.90
36552;DHT22;22559;54.176;12.102;2022-10-31T00:44:00;11.90;99.90
36552;DHT22;22559;54.176;12.102;2022-10-31T00:46:26;11.90;99.90
36552;DHT22;22559;54.176;12.102;2022-10-31T00:48:52;11.80;99.90
36552;DHT22;22559;54.176;12.102;2022-10-31T00:51:17;11.80;99.90
36552;DHT22;22559;54.176;12.102;2022-10-31T00:53:43;11.80;99.90
36552;DHT22;22559;54.176;12.102;2022-10-31T00:56:09;11.80;99.90
36552;DHT22;22559;54.176;12.102;2022-10-31T00:58:34;11.70;99.90
36552;DHT22;22559;54.176;12.102;2022-10-31T01:01:00;11.60;99.90
36552;DHT22;22559;54.176;12.102;2022-10-31T01:03:29;11.60;99.90
36552;DHT22;22559;54.176;12.102;2022-10-31T01:05:57;11.50;99.90
36552;DHT22;22559;54.176;12.102;2022-10-31T01:08:23;11.50;99.90
36552;DHT22;22559;54.176;12.102;2022-10-31T01:10:59;11.40;99.90
36552;DHT22;22559;54.176;12.102;2022-10-31T01:13:24;11.50;99.90
36552;DHT22;22559;54.176;12.102;2022-10-31T01:15:54;11.60;99.90
36552;DHT22;22559;54.176;12.102;2022-10-31T01:18:21;11.80;99.90
36552;DHT22;22559;54.176;12.102;2022-10-31T01:20:46;11.90;99.90
36552;DHT22;22559;54.176;12.102;2022-10-31T01:23:12;11.90;99.90
36552;DHT22;22559;54.176;12.102;2022-10-31T01:25:38;11.90;99.90
36552;DHT22;22559;54.176;12.102;2022-10-31T01:28:03;11.90;99.90
36552;DHT22;22559;54.176;12.102;2022-10-31T01:30:29;11.80;99.90
36552;DHT22;22559;54.176;12.102;2022-10-31T01:32:54;11.90;99.90
36552;DHT22;22559;54.176;12.102;2022-10-31T01:35:20;11.90;99.90
36552;DHT22;22559;54.176;12.102;2022-10-31T01:37:45;11.80;99.90
36552;DHT22;22559;54.176;12.102;2022-10-31T01:40:11;11.70;99.90
36552;DHT22;22559;54.176;12.102;2022-10-31T01:42:36;11.70;99.90
36552;DHT22;22559;54.176;12.102;2022-10-31T01:45:03;11.70;99.90
36552;DHT22;22559;54.176;12.102;2022-10-31T01:47:40;11.60;99.90
36552;DHT22;22559;54.176;12.102;2022-10-31T01:50:13;11.50;99.90
36552;DHT22;22559;54.176;12.102;2022-10-31T01:52:45;11.40;99.90
36552;DHT22;22559;54.176;12.102;2022-10-31T01:55:20;11.40;99.90
36552;DHT22;22559;54.176;12.102;2022-10-31T01:57:51;11.30;99.90
36552;DHT22;22559;54.176;12.102;2022-10-31T02:00:20;11.40;99.90
36552;DHT22;22559;54.176;12.102;2022-10-31T02:02:47;11.50;99.90
36552;DHT22;22559;54.176;12.102;2022-10-31T02:05:17;11.60;99.90
36552;DHT22;22559;54.176;12.102;2022-10-31T02:07:51;11.70;99.90
36552;DHT22;22559;54.176;12.102;2022-10-31T02:10:20;11.80;99.90
36552;DHT22;22559;54.176;12.102;2022-10-31T02:12:47;11.80;99.90
36552;DHT22;22559;54.176;12.102;2022-10-31T02:15:13;11.90;99.90
36552;DHT22;22559;54.176;12.102;2022-10-31T02:17:39;11.90;99.90
36552;DHT22;22559;54.176;12.102;2022-10-31T02:20:18;12.00;99.90
36552;DHT22;22559;54.176;12.102;2022-10-31T02:33:59;12.00;99.90
36552;DHT22;22559;54.176;12.102;2022-10-31T02:36:39;12.00;99.90
36552;DHT22;22559;54.176;12.102;2022-10-31T02:39:22;12.00;99.90
36552;DHT22;22559;54.176;12.102;2022-10-31T02:44:54;12.00;99.90
36552;DHT22;22559;54.176;12.102;2022-10-31T02:47:26;12.00;99.90
36552;DHT22;22559;54.176;12.102;2022-10-31T02:50:00;12.00;99.90
36552;DHT22;22559;54.176;12.102;2022-10-31T02:52:31;12.00;99.90
36552;DHT22;22559;54.176;12.102;2022-10-31T02:54:57;12.00;99.90
36552;DHT22;22559;54.176;12.102;2022-10-31T02:57:26;11.90;99.90
36552;DHT22;22559;54.176;12.102;2022-10-31T02:59:57;11.90;99.90
36552;DHT22;22559;54.176;12.102;2022-10-31T03:02:41;11.90;99.90
36552;DHT22;22559;54.176;12.102;2022-10-31T03:13:05;11.80;99.90
36552;DHT22;22559;54.176;12.102;2022-10-31T03:15:43;11.80;99.90
36552;DHT22;22559;54.176;12.102;2022-10-31T03:18:15;11.80;99.90
36552;DHT22;22559;54.176;12.102;2022-10-31T03:20:52;11.80;99.90
36552;DHT22;22559;54.176;12.102;2022-10-31T03:23:22;11.80;99.90
36552;DHT22;22559;54.176;12.102;2022-10-31T03:25:48;11.80;99.90
36552;DHT22;22559;54.176;12.102;2022-10-31T03:28:17;11.80;99.90
36552;DHT22;22559;54.176;12.102;2022-10-31T03:30:45;11.80;99.90
36552;DHT22;22559;54.176;12.102;2022-10-31T03:33:16;11.70;99.90
36552;DHT22;22559;54.176;12.102;2022-10-31T03:35:45;11.70;99.90
36552;DHT22;22559;54.176;12.102;2022-10-31T03:38:14;11.70;99.90
36552;DHT22;22559;54.176;12.102;2022-10-31T03:40:43;11.70;99.90
36552;DHT22;22559;54.176;12.102;2022-10-31T03:43:14;11.70;99.90
36552;DHT22;22559;54.176;12.102;2022-10-31T03:45:44;11.60;99.90
36552;DHT22;22559;54.176;12.102;2022-10-31T03:48:11;11.60;99.90
36552;DHT22;22559;54.176;12.102;2022-10-31T03:50:58;11.60;99.90
36552;DHT22;22559;54.176;12.102;2022-10-31T03:53:32;11.50;99.90
36552;DHT22;22559;54.176;12.102;2022-10-31T03:56:22;11.50;99.90
36552;DHT22;22559;54.176;12.102;2022-10-31T03:58:59;11.60;99.90
36552;DHT22;22559;54.176;12.102;2022-10-31T04:01:29;11.50;99.90
36552;DHT22;22559;54.176;12.102;2022-10-31T04:03:57;11.50;99.90
36552;DHT22;22559;54.176;12.102;2022-10-31T04:06:24;11.50;99.90
36552;DHT22;22559;54.176;12.102;2022-10-31T04:09:00;11.50;99.90
36552;DHT22;22559;54.176;12.102;2022-10-31T04:11:31;11.50;99.90
36552;DHT22;22559;54.176;12.102;2022-10-31T04:13:58;11.50;99.90
36552;DHT22;22559;54.176;12.102;2022-10-31T04:16:24;11.40;99.90
36552;DHT22;22559;54.176;12.102;2022-10-31T04:18:50;11.40;99.90
36552;DHT22;22559;54.176;12.102;2022-10-31T04:21:16;11.40;99.90
36552;DHT22;22559;54.176;12.102;2022-10-31T04:23:42;11.40;99.90
36552;DHT22;22559;54.176;12.102;2022-10-31T04:26:10;11.40;99.90
36552;DHT22;22559;54.176;12.102;2022-10-31T04:28:37;11.40;99.90
36552;DHT22;22559;54.176;12.102;2022-10-31T04:31:02;11.40;99.90
36552;DHT22;22559;54.176;12.102;2022-10-31T04:33:28;11.40;99.90
36552;DHT22;22559;54.176;12.102;2022-10-31T04:35:53;11.40;99.90
36552;DHT22;22559;54.176;12.102;2022-10-31T04:38:19;11.40;99.90
36552;DHT22;22559;54.176;12.102;2022-10-31T04:40:45;11.30;99.90
36552;DHT22;22559;54.176;12.102;2022-10-31T04:43:11;11.30;99.90
36552;DHT22;22559;54.176;12.102;2022-10-31T04:45:37;11.30;99.90
36552;DHT22;22559;54.176;12.102;2022-10-31T04:48:03;11.30;99.90
36552;DHT22;22559;54.176;12.102;2022-10-31T04:50:28;11.40;99.90
36552;DHT22;22559;54.176;12.102;2022-10-31T04:52:54;11.40;99.90
36552;DHT22;22559;54.176;12.102;2022-10-31T04:55:20;11.50;99.90
36552;DHT22;22559;54.176;12.102;2022-10-31T04:57:48;11.50;99.90
36552;DHT22;22559;54.176;12.102;2022-10-31T05:00:16;11.60;99.90
36552;DHT22;22559;54.176;12.102;2022-10-31T05:02:52;11.60;99.90
36552;DHT22;22559;54.176;12.102;2022-10-31T05:05:21;11.60;99.90
36552;DHT22;22559;54.176;12.102;2022-10-31T05:07:48;11.70;99.90
36552;DHT22;22559;54.176;12.102;2022-10-31T05:10:20;11.70;99.90
36552;DHT22;22559;54.176;12.102;2022-10-31T05:12:50;11.70;99.90
36552;DHT22;22559;54.176;12.102;2022-10-31T05:15:17;11.80;99.90
36552;DHT22;22559;54.176;12.102;2022-10-31T05:17:43;11.80;99.90
36552;DHT22;22559;54.176;12.102;2022-10-31T05:20:10;11.90;99.90
36552;DHT22;22559;54.176;12.102;2022-10-31T05:22:36;11.90;99.90
36552;DHT22;22559;54.176;12.102;2022-10-31T05:25:02;11.90;99.90
36552;DHT22;22559;54.176;12.102;2022-10-31T05:27:27;11.90;99.90
36552;DHT22;22559;54.176;12.102;2022-10-31T05:29:53;12.00;99.90
36552;DHT22;22559;54.176;12.102;2022-10-31T05:32:18;11.90;99.90
36552;DHT22;22559;54.176;12.102;2022-10-31T05:34:44;11.90;99.90
36552;DHT22;22559;54.176;12.102;2022-10-31T05:37:09;12.00;99.90
36552;DHT22;22559;54.176;12.102;2022-10-31T05:39:35;12.00;99.90
36552;DHT22;22559;54.176;12.102;2022-10-31T05:42:01;12.10;99.90
36552;DHT22;22559;54.176;12.102;2022-10-31T05:44:26;12.10;99.90
36552;DHT22;22559;54.176;12.102;2022-10-31T05:46:52;12.00;99.90
36552;DHT22;22559;54.176;12.102;2022-10-31T05:49:17;12.00;99.90
36552;DHT22;22559;54.176;12.102;2022-10-31T05:51:43;12.00;99.90
36552;DHT22;22559;54.176;12.102;2022-10-31T05:54:09;12.00;99.90
36552;DHT22;22559;54.176;12.102;2022-10-31T05:56:34;12.10;99.90
36552;DHT22;22559;54.176;12.102;2022-10-31T05:59:00;12.10;99.90
36552;DHT22;22559;54.176;12.102;2022-10-31T06:01:25;12.10;99.90
36552;DHT22;22559;54.176;12.102;2022-10-31T06:03:51;12.10;99.90
36552;DHT22;22559;54.176;12.102;2022-10-31T06:06:16;12.10;99.90
36552;DHT22;22559;54.176;12.102;2022-10-31T06:08:42;12.10;99.90
36552;DHT22;22559;54.176;12.102;2022-10-31T06:11:07;12.20;99.90
36552;DHT22;22559;54.176;12.102;2022-10-31T06:13:36;12.30;99.90
36552;DHT22;22559;54.176;12.102;2022-10-31T06:16:02;12.40;99.90
36552;DHT22;22559;54.176;12.102;2022-10-31T06:18:27;12.50;99.90
36552;DHT22;22559;54.176;12.102;2022-10-31T06:20:53;12.50;99.90
36552;DHT22;22559;54.176;12.102;2022-10-31T06:23:19;12.50;99.90
36552;DHT22;22559;54.176;12.102;2022-10-31T06:25:49;12.60;99.90
36552;DHT22;22559;54.176;12.102;2022-10-31T06:28:14;12.60;99.90
36552;DHT22;22559;54.176;12.102;2022-10-31T06:30:40;12.60;99.90
36552;DHT22;22559;54.176;12.102;2022-10-31T06:33:05;12.60;99.90
36552;DHT22;22559;54.176;12.102;2022-10-31T06:35:31;12.70;99.90
36552;DHT22;22559;54.176;12.102;2022-10-31T06:37:57;12.60;99.90
36552;DHT22;22559;54.176;12.102;2022-10-31T06:40:23;12.70;99.90
36552;DHT22;22559;54.176;12.102;2022-10-31T06:42:56;12.60;99.90
36552;DHT22;22559;54.176;12.102;2022-10-31T06:45:22;12.70;99.90
36552;DHT22;22559;54.176;12.102;2022-10-31T06:47:52;12.70;99.90
36552;DHT22;22559;54.176;12.102;2022-10-31T06:50:19;12.80;99.90
36552;DHT22;22559;54.176;12.102;2022-10-31T06:52:53;12.80;99.90
36552;DHT22;22559;54.176;12.102;2022-10-31T06:55:20;12.80;99.90
36552;DHT22;22559;54.176;12.102;2022-10-31T07:00:16;12.90;99.90
36552;DHT22;22559;54.176;12.102;2022-10-31T07:02:42;12.90;99.90
36552;DHT22;22559;54.176;12.102;2022-10-31T07:05:07;13.00;99.90
36552;DHT22;22559;54.176;12.102;2022-10-31T07:07:33;13.10;99.90
36552;DHT22;22559;54.176;12.102;2022-10-31T07:09:58;13.10;99.90
36552;DHT22;22559;54.176;12.102;2022-10-31T07:12:24;13.10;99.90
36552;DHT22;22559;54.176;12.102;2022-10-31T07:14:50;13.20;99.90
36552;DHT22;22559;54.176;12.102;2022-10-31T07:17:15;13.20;99.90
36552;DHT22;22559;54.176;12.102;2022-10-31T07:19:41;13.20;99.90
36552;DHT22;22559;54.176;12.102;2022-10-31T07:22:06;13.20;99.90
36552;DHT22;22559;54.176;12.102;2022-10-31T07:24:32;13.30;99.90
36552;DHT22;22559;54.176;12.102;2022-10-31T07:26:57;13.30;99.90
36552;DHT22;22559;54.176;12.102;2022-10-31T07:29:23;13.30;99.90
36552;DHT22;22559;54.176;12.102;2022-10-31T07:31:48;13.40;99.90
36552;DHT22;22559;54.176;12.102;2022-10-31T07:34:14;13.40;99.90
36552;DHT22;22559;54.176;12.102;2022-10-31T07:36:39;13.50;99.90
36552;DHT22;22559;54.176;12.102;2022-10-31T07:39:05;13.60;99.90
36552;DHT22;22559;54.176;12.102;2022-10-31T07:41:31;13.70;99.90
36552;DHT22;22559;54.176;12.102;2022-10-31T07:43:56;13.80;99.90
36552;DHT22;22559;54.176;12.102;2022-10-31T07:46:22;13.90;99.90
36552;DHT22;22559;54.176;12.102;2022-10-31T07:48:48;13.90;99.90
36552;DHT22;22559;54.176;12.102;2022-10-31T07:51:13;13.90;99.90
36552;DHT22;22559;54.176;12.102;2022-10-31T07:53:39;14.00;99.90
36552;DHT22;22559;54.176;12.102;2022-10-31T07:56:04;14.00;99.90
36552;DHT22;22559;54.176;12.102;2022-10-31T07:58:30;14.00;99.90
36552;DHT22;22559;54.176;12.102;2022-10-31T08:00:57;14.00;99.90
36552;DHT22;22559;54.176;12.102;2022-10-31T08:03:23;14.10;99.90
36552;DHT22;22559;54.176;12.102;2022-10-31T08:05:48;14.00;99.90
36552;DHT22;22559;54.176;12.102;2022-10-31T08:08:15;14.10;99.90
36552;DHT22;22559;54.176;12.102;2022-10-31T08:10:41;14.10;99.90
36552;DHT22;22559;54.176;12.102;2022-10-31T08:13:08;14.10;99.90
36552;DHT22;22559;54.176;12.102;2022-10-31T08:15:35;14.30;99.90
36552;DHT22;22559;54.176;12.102;2022-10-31T08:18:04;14.30;99.90
36552;DHT22;22559;54.176;12.102;2022-10-31T08:20:29;14.40;99.90
36552;DHT22;22559;54.176;12.102;2022-10-31T08:23:00;14.30;99.90
36552;DHT22;22559;54.176;12.102;2022-10-31T08:25:27;14.30;99.90
36552;DHT22;22559;54.176;12.102;2022-10-31T08:27:54;14.30;99.90
36552;DHT22;22559;54.176;12.102;2022-10-31T08:30:21;14.20;99.90
36552;DHT22;22559;54.176;12.102;2022-10-31T08:32:56;14.20;99.90
36552;DHT22;22559;54.176;12.102;2022-10-31T08:35:22;14.30;99.90
36552;DHT22;22559;54.176;12.102;2022-10-31T08:37:52;14.30;99.90
36552;DHT22;22559;54.176;12.102;2022-10-31T08:40:19;14.40;99.90
36552;DHT22;22559;54.176;12.102;2022-10-31T08:42:44;14.30;99.90
36552;DHT22;22559;54.176;12.102;2022-10-31T08:45:10;14.40;99.90
36552;DHT22;22559;54.176;12.102;2022-10-31T08:47:35;14.40;99.90
36552;DHT22;22559;54.176;12.102;2022-10-31T08:50:01;14.40;99.90
36552;DHT22;22559;54.176;12.102;2022-10-31T08:52:26;14.40;99.90
36552;DHT22;22559;54.176;12.102;2022-10-31T08:54:52;14.40;99.90
36552;DHT22;22559;54.176;12.102;2022-10-31T08:57:17;14.40;99.90
36552;DHT22;22559;54.176;12.102;2022-10-31T08:59:43;14.50;99.90
36552;DHT22;22559;54.176;12.102;2022-10-31T09:02:09;14.50;99.90
36552;DHT22;22559;54.176;12.102;2022-10-31T09:04:34;14.40;99.90
36552;DHT22;22559;54.176;12.102;2022-10-31T09:07:00;14.50;99.90
36552;DHT22;22559;54.176;12.102;2022-10-31T09:09:25;14.40;99.90
36552;DHT22;22559;54.176;12.102;2022-10-31T09:11:51;14.40;99.90
36552;DHT22;22559;54.176;12.102;2022-10-31T09:14:16;14.40;99.90
36552;DHT22;22559;54.176;12.102;2022-10-31T09:16:42;14.40;99.90
36552;DHT22;22559;54.176;12.102;2022-10-31T09:19:08;14.40;99.90
36552;DHT22;22559;54.176;12.102;2022-10-31T09:21:33;14.40;99.90
36552;DHT22;22559;54.176;12.102;2022-10-31T09:23:59;14.40;99.90
36552;DHT22;22559;54.176;12.102;2022-10-31T09:26:24;14.50;99.90
36552;DHT22;22559;54.176;12.102;2022-10-31T09:28:50;14.50;99.90
36552;DHT22;22559;54.176;12.102;2022-10-31T09:31:16;14.40;99.90
36552;DHT22;22559;54.176;12.102;2022-10-31T09:33:41;14.40;99.90
36552;DHT22;22559;54.176;12.102;2022-10-31T09:36:07;14.40;99.90
36552;DHT22;22559;54.176;12.102;2022-10-31T09:38:33;14.40;99.90
36552;DHT22;22559;54.176;12.102;2022-10-31T09:43:52;14.30;99.90
36552;DHT22;22559;54.176;12.102;2022-10-31T09:46:34;14.30;99.90
36552;DHT22;22559;54.176;12.102;2022-10-31T09:51:42;14.30;99.90
36552;DHT22;22559;54.176;12.102;2022-10-31T09:56:37;14.30;99.90
36552;DHT22;22559;54.176;12.102;2022-10-31T09:59:06;14.30;99.90
36552;DHT22;22559;54.176;12.102;2022-10-31T10:01:47;14.30;99.90
36552;DHT22;22559;54.176;12.102;2022-10-31T10:06:45;14.20;99.90
36552;DHT22;22559;54.176;12.102;2022-10-31T10:09:12;14.20;99.90
36552;DHT22;22559;54.176;12.102;2022-10-31T10:17:13;14.20;99.90
36552;DHT22;22559;54.176;12.102;2022-10-31T10:22:46;14.10;99.90
36552;DHT22;22559;54.176;12.102;2022-10-31T10:25:17;14.10;99.90
36552;DHT22;22559;54.176;12.102;2022-10-31T10:30:55;14.10;99.90
36552;DHT22;22559;54.176;12.102;2022-10-31T10:35:57;14.10;99.90
36552;DHT22;22559;54.176;12.102;2022-10-31T10:38:37;14.00;99.90
36552;DHT22;22559;54.176;12.102;2022-10-31T10:41:11;14.00;99.90
36552;DHT22;22559;54.176;12.102;2022-10-31T10:43:38;14.00;99.90
36552;DHT22;22559;54.176;12.102;2022-10-31T10:46:17;14.00;99.90
36552;DHT22;22559;54.176;12.102;2022-10-31T10:51:58;14.00;99.90
36552;DHT22;22559;54.176;12.102;2022-10-31T10:59:53;14.00;99.90
36552;DHT22;22559;54.176;12.102;2022-10-31T11:02:27;14.00;99.90
36552;DHT22;22559;54.176;12.102;2022-10-31T11:04:54;14.00;99.90
36552;DHT22;22559;54.176;12.102;2022-10-31T11:07:21;13.90;99.90
36552;DHT22;22559;54.176;12.102;2022-10-31T11:09:47;14.00;99.90
36552;DHT22;22559;54.176;12.102;2022-10-31T11:12:28;14.00;99.90
36552;DHT22;22559;54.176;12.102;2022-10-31T11:14:58;14.00;99.90
36552;DHT22;22559;54.176;12.102;2022-10-31T11:17:36;14.10;99.90
36552;DHT22;22559;54.176;12.102;2022-10-31T11:22:36;14.00;99.90
36552;DHT22;22559;54.176;12.102;2022-10-31T11:25:25;14.10;99.90
36552;DHT22;22559;54.176;12.102;2022-10-31T11:28:05;14.10;99.90
36552;DHT22;22559;54.176;12.102;2022-10-31T11:30:43;14.10;99.90
36552;DHT22;22559;54.176;12.102;2022-10-31T11:33:19;14.10;99.90
36552;DHT22;22559;54.176;12.102;2022-10-31T11:35:47;14.00;99.90
36552;DHT22;22559;54.176;12.102;2022-10-31T11:38:19;14.00;99.90
36552;DHT22;22559;54.176;12.102;2022-10-31T11:41:08;14.00;99.90
36552;DHT22;22559;54.176;12.102;2022-10-31T11:43:34;13.90;99.90
36552;DHT22;22559;54.176;12.102;2022-10-31T11:46:11;13.90;99.90
36552;DHT22;22559;54.176;12.102;2022-10-31T11:48:50;13.80;99.90
36552;DHT22;22559;54.176;12.102;2022-10-31T11:51:36;13.80;99.90
36552;DHT22;22559;54.176;12.102;2022-10-31T11:54:04;13.70;99.90
36552;DHT22;22559;54.176;12.102;2022-10-31T11:56:40;13.80;99.90
36552;DHT22;22559;54.176;12.102;2022-10-31T11:59:26;13.70;99.90
36552;DHT22;22559;54.176;12.102;2022-10-31T12:01:54;13.70;99.90
36552;DHT22;22559;54.176;12.102;2022-10-31T12:04:32;13.70;99.90
36552;DHT22;22559;54.176;12.102;2022-10-31T12:07:00;13.60;99.90
36552;DHT22;22559;54.176;12.102;2022-10-31T12:09:32;13.70;99.90
36552;DHT22;22559;54.176;12.102;2022-10-31T12:12:27;13.60;99.90
36552;DHT22;22559;54.176;12.102;2022-10-31T12:15:28;13.60;99.90
36552;DHT22;22559;54.176;12.102;2022-10-31T12:26:04;13.60;99.90
36552;DHT22;22559;54.176;12.102;2022-10-31T12:29:02;13.60;99.90
36552;DHT22;22559;54.176;12.102;2022-10-31T12:31:48;13.50;99.90
36552;DHT22;22559;54.176;12.102;2022-10-31T12:51:20;13.60;99.90
36552;DHT22;22559;54.176;12.102;2022-10-31T12:59:30;13.60;99.90
36552;DHT22;22559;54.176;12.102;2022-10-31T13:02:19;13.50;99.90
36552;DHT22;22559;54.176;12.102;2022-10-31T13:05:05;13.50;99.90
36552;DHT22;22559;54.176;12.102;2022-10-31T13:08:17;13.40;99.90
36552;DHT22;22559;54.176;12.102;2022-10-31T13:10:24;13.50;99.90
36552;DHT22;22559;54.176;12.102;2022-10-31T13:12:56;13.40;99.90
36552;DHT22;22559;54.176;12.102;2022-10-31T13:15:26;13.30;99.90
36552;DHT22;22559;54.176;12.102;2022-10-31T13:17:58;13.30;99.90
36552;DHT22;22559;54.176;12.102;2022-10-31T13:22:54;13.40;99.90
36552;DHT22;22559;54.176;12.102;2022-10-31T13:25:30;13.50;99.90
36552;DHT22;22559;54.176;12.102;2022-10-31T13:28:11;13.50;99.90
36552;DHT22;22559;54.176;12.102;2022-10-31T13:30:40;13.60;99.90
36552;DHT22;22559;54.176;12.102;2022-10-31T13:33:14;13.60;99.90
36552;DHT22;22559;54.176;12.102;2022-10-31T13:38:49;13.50;99.90
36552;DHT22;22559;54.176;12.102;2022-10-31T13:44:27;13.50;99.90
36552;DHT22;22559;54.176;12.102;2022-10-31T13:46:55;13.50;99.90
36552;DHT22;22559;54.176;12.102;2022-10-31T13:54:48;13.60;99.90
36552;DHT22;22559;54.176;12.102;2022-10-31T14:00:46;13.60;99.90
36552;DHT22;22559;54.176;12.102;2022-10-31T14:02:48;13.70;99.90
36552;DHT22;22559;54.176;12.102;2022-10-31T14:05:35;13.70;99.90
36552;DHT22;22559;54.176;12.102;2022-10-31T14:08:06;13.60;99.90
36552;DHT22;22559;54.176;12.102;2022-10-31T14:10:48;13.60;99.90
36552;DHT22;22559;54.176;12.102;2022-10-31T14:13:23;13.50;99.90
36552;DHT22;22559;54.176;12.102;2022-10-31T14:16:04;13.60;99.90
36552;DHT22;22559;54.176;12.102;2022-10-31T14:18:38;13.60;99.90
36552;DHT22;22559;54.176;12.102;2022-10-31T14:21:51;13.70;99.90
36552;DHT22;22559;54.176;12.102;2022-10-31T14:27:03;13.60;99.90
36552;DHT22;22559;54.176;12.102;2022-10-31T14:29:31;13.70;99.90
36552;DHT22;22559;54.176;12.102;2022-10-31T14:32:26;13.70;99.90
36552;DHT22;22559;54.176;12.102;2022-10-31T14:34:55;13.70;99.90
36552;DHT22;22559;54.176;12.102;2022-10-31T14:40:24;13.70;99.90
36552;DHT22;22559;54.176;12.102;2022-10-31T14:51:12;13.40;99.90
36552;DHT22;22559;54.176;12.102;2022-10-31T14:53:53;13.50;99.90
36552;DHT22;22559;54.176;12.102;2022-10-31T14:58:50;13.40;99.90
36552;DHT22;22559;54.176;12.102;2022-10-31T15:01:28;13.40;99.90
36552;DHT22;22559;54.176;12.102;2022-10-31T15:04:09;13.50;99.90
36552;DHT22;22559;54.176;12.102;2022-10-31T15:06:43;13.30;99.90
36552;DHT22;22559;54.176;12.102;2022-10-31T15:09:27;13.20;99.90
36552;DHT22;22559;54.176;12.102;2022-10-31T15:11:52;13.20;99.90
36552;DHT22;22559;54.176;12.102;2022-10-31T15:14:30;13.20;99.90
36552;DHT22;22559;54.176;12.102;2022-10-31T15:17:02;13.20;99.90
36552;DHT22;22559;54.176;12.102;2022-10-31T15:19:30;13.20;99.90
36552;DHT22;22559;54.176;12.102;2022-10-31T15:21:57;13.20;99.90
36552;DHT22;22559;54.176;12.102;2022-10-31T15:24:30;13.20;99.90
36552;DHT22;22559;54.176;12.102;2022-10-31T15:26:56;13.20;99.90
36552;DHT22;22559;54.176;12.102;2022-10-31T15:29:25;13.00;99.90
36552;DHT22;22559;54.176;12.102;2022-10-31T15:32:15;13.00;99.90
36552;DHT22;22559;54.176;12.102;2022-10-31T15:34:43;13.00;99.90
36552;DHT22;22559;54.176;12.102;2022-10-31T15:37:14;13.00;99.90
36552;DHT22;22559;54.176;12.102;2022-10-31T15:39:40;12.90;99.90
36552;DHT22;22559;54.176;12.102;2022-10-31T15:42:27;12.90;99.90
36552;DHT22;22559;54.176;12.102;2022-10-31T15:45:18;12.80;99.90
36552;DHT22;22559;54.176;12.102;2022-10-31T15:50:35;12.80;99.90
36552;DHT22;22559;54.176;12.102;2022-10-31T15:53:04;12.80;99.90
36552;DHT22;22559;54.176;12.102;2022-10-31T15:55:35;12.70;99.90
36552;DHT22;22559;54.176;12.102;2022-10-31T15:58:13;12.70;99.90
36552;DHT22;22559;54.176;12.102;2022-10-31T16:00:47;12.70;99.90
36552;DHT22;22559;54.176;12.102;2022-10-31T16:03:30;12.70;99.90
36552;DHT22;22559;54.176;12.102;2022-10-31T16:05:58;12.70;99.90
36552;DHT22;22559;54.176;12.102;2022-10-31T16:08:31;12.70;99.90
36552;DHT22;22559;54.176;12.102;2022-10-31T16:13:34;12.50;99.90
36552;DHT22;22559;54.176;12.102;2022-10-31T16:16:02;12.60;99.90
36552;DHT22;22559;54.176;12.102;2022-10-31T16:18:34;12.60;99.90
36552;DHT22;22559;54.176;12.102;2022-10-31T16:21:00;12.50;99.90
36552;DHT22;22559;54.176;12.102;2022-10-31T16:23:26;12.60;99.90
36552;DHT22;22559;54.176;12.102;2022-10-31T16:25:53;12.60;99.90
36552;DHT22;22559;54.176;12.102;2022-10-31T16:28:29;12.70;99.90
36552;DHT22;22559;54.176;12.102;2022-10-31T16:30:56;12.70;99.90
36552;DHT22;22559;54.176;12.102;2022-10-31T16:33:26;12.60;99.90
36552;DHT22;22559;54.176;12.102;2022-10-31T16:35:53;12.60;99.90
36552;DHT22;22559;54.176;12.102;2022-10-31T16:38:19;12.60;99.90
36552;DHT22;22559;54.176;12.102;2022-10-31T16:40:45;12.60;99.90
36552;DHT22;22559;54.176;12.102;2022-10-31T16:43:12;12.50;99.90
36552;DHT22;22559;54.176;12.102;2022-10-31T16:45:43;12.50;99.90
36552;DHT22;22559;54.176;12.102;2022-10-31T16:48:15;12.50;99.90
36552;DHT22;22559;54.176;12.102;2022-10-31T16:50:42;12.50;99.90
36552;DHT22;22559;54.176;12.102;2022-10-31T16:53:09;12.60;99.90
36552;DHT22;22559;54.176;12.102;2022-10-31T16:55:45;12.60;99.90
36552;DHT22;22559;54.176;12.102;2022-10-31T16:58:25;12.50;99.90
36552;DHT22;22559;54.176;12.102;2022-10-31T17:00:51;12.50;99.90
36552;DHT22;22559;54.176;12.102;2022-10-31T17:03:17;12.60;99.90
36552;DHT22;22559;54.176;12.102;2022-10-31T17:05:43;12.50;99.90
36552;DHT22;22559;54.176;12.102;2022-10-31T17:08:09;12.60;99.90
36552;DHT22;22559;54.176;12.102;2022-10-31T17:10:35;12.60;99.90
36552;DHT22;22559;54.176;12.102;2022-10-31T17:13:02;12.60;99.90
36552;DHT22;22559;54.176;12.102;2022-10-31T17:15:36;12.60;99.90
36552;DHT22;22559;54.176;12.102;2022-10-31T17:18:03;12.60;99.90
36552;DHT22;22559;54.176;12.102;2022-10-31T17:20:30;12.70;99.90
36552;DHT22;22559;54.176;12.102;2022-10-31T17:22:57;12.70;99.90
36552;DHT22;22559;54.176;12.102;2022-10-31T17:25:28;12.60;99.90
36552;DHT22;22559;54.176;12.102;2022-10-31T17:27:56;12.60;99.90
36552;DHT22;22559;54.176;12.102;2022-10-31T17:30:22;12.70;99.90
36552;DHT22;22559;54.176;12.102;2022-10-31T17:32:49;12.70;99.90
36552;DHT22;22559;54.176;12.102;2022-10-31T17:35:15;12.70;99.90
36552;DHT22;22559;54.176;12.102;2022-10-31T17:37:42;12.70;99.90
36552;DHT22;22559;54.176;12.102;2022-10-31T17:40:13;12.70;99.90